sensor_id;sensor_type;location;lat;lon;timestamp;temperature;humidity
51873;DHT22;52863;52.504;13.480;2022-07-23T00:11:56;18.40;99.90
51873;DHT22;52863;52.504;13.480;2022-07-23T00:24:18;18.30;99.90
51873;DHT22;52863;52.504;13.480;2022-07-23T00:29:16;18.20;99.90
51873;DHT22;52863;52.504;13.480;2022-07-23T00:34:13;18.30;99.90
51873;DHT22;52863;52.504;13.480;2022-07-23T00:36:42;18.10;99.90
51873;DHT22;52863;52.504;13.480;2022-07-23T00:39:11;18.10;99.90
51873;DHT22;52863;52.504;13.480;2022-07-23T00:41:43;18.30;99.90
51873;DHT22;52863;52.504;13.480;2022-07-23T00:44:18;18.30;99.90
51873;DHT22;52863;52.504;13.480;2022-07-23T00:46:48;18.50;99.90
51873;DHT22;52863;52.504;13.480;2022-07-23T00:54:18;18.30;99.90
51873;DHT22;52863;52.504;13.480;2022-07-23T00:56:46;18.30;99.90
51873;DHT22;52863;52.504;13.480;2022-07-23T01:01:44;18.20;99.90
51873;DHT22;52863;52.504;13.480;2022-07-23T01:04:16;18.20;99.90
51873;DHT22;52863;52.504;13.480;2022-07-23T01:14:11;18.40;99.90
51873;DHT22;52863;52.504;13.480;2022-07-23T01:16:43;18.30;99.90
51873;DHT22;52863;52.504;13.480;2022-07-23T01:19:13;18.30;99.90
51873;DHT22;52863;52.504;13.480;2022-07-23T01:21:43;18.30;99.90
51873;DHT22;52863;52.504;13.480;2022-07-23T01:24:14;18.20;99.90
51873;DHT22;52863;52.504;13.480;2022-07-23T01:26:44;18.10;99.90
51873;DHT22;52863;52.504;13.480;2022-07-23T01:29:13;18.20;99.90
51873;DHT22;52863;52.504;13.480;2022-07-23T01:41:38;18.00;99.90
51873;DHT22;52863;52.504;13.480;2022-07-23T01:46:38;18.00;99.90
51873;DHT22;52863;52.504;13.480;2022-07-23T01:59:02;17.70;99.90
51873;DHT22;52863;52.504;13.480;2022-07-23T02:01:30;17.80;99.90
51873;DHT22;52863;52.504;13.480;2022-07-23T02:06:27;17.70;99.90
51873;DHT22;52863;52.504;13.480;2022-07-23T02:16:22;17.40;99.90
51873;DHT22;52863;52.504;13.480;2022-07-23T02:21:18;17.70;99.90
51873;DHT22;52863;52.504;13.480;2022-07-23T02:33:45;17.70;99.90
51873;DHT22;52863;52.504;13.480;2022-07-23T02:51:05;17.50;99.90
51873;DHT22;52863;52.504;13.480;2022-07-23T03:01:06;17.30;99.90
51873;DHT22;52863;52.504;13.480;2022-07-23T03:06:03;17.40;99.90
51873;DHT22;52863;52.504;13.480;2022-07-23T03:08:32;17.20;99.90
51873;DHT22;52863;52.504;13.480;2022-07-23T03:16:01;17.40;99.90
51873;DHT22;52863;52.504;13.480;2022-07-23T03:18:33;17.10;99.90
51873;DHT22;52863;52.504;13.480;2022-07-23T03:23:36;17.00;99.90
51873;DHT22;52863;52.504;13.480;2022-07-23T03:26:04;17.00;99.90
51873;DHT22;52863;52.504;13.480;2022-07-23T03:35:58;17.00;99.90
51873;DHT22;52863;52.504;13.480;2022-07-23T03:40:57;16.90;99.90
51873;DHT22;52863;52.504;13.480;2022-07-23T03:45:53;17.00;99.90
51873;DHT22;52863;52.504;13.480;2022-07-23T03:50:51;17.00;99.90
51873;DHT22;52863;52.504;13.480;2022-07-23T03:53:19;16.90;99.90
51873;DHT22;52863;52.504;13.480;2022-07-23T03:58:18;16.80;99.90
51873;DHT22;52863;52.504;13.480;2022-07-23T04:15:38;16.60;99.90
51873;DHT22;52863;52.504;13.480;2022-07-23T04:33:03;16.80;99.90
51873;DHT22;52863;52.504;13.480;2022-07-23T04:35:34;16.70;99.90
51873;DHT22;52863;52.504;13.480;2022-07-23T04:38:02;16.70;99.90
51873;DHT22;52863;52.504;13.480;2022-07-23T04:50:27;16.40;99.90
51873;DHT22;52863;52.504;13.480;2022-07-23T05:07:48;15.90;99.90
51873;DHT22;52863;52.504;13.480;2022-07-23T05:10:17;16.00;99.90
51873;DHT22;52863;52.504;13.480;2022-07-23T05:15:14;15.80;99.90
51873;DHT22;52863;52.504;13.480;2022-07-23T05:25:10;15.80;99.90
51873;DHT22;52863;52.504;13.480;2022-07-23T05:30:07;15.80;99.90
51873;DHT22;52863;52.504;13.480;2022-07-23T05:35:05;15.70;99.90
51873;DHT22;52863;52.504;13.480;2022-07-23T05:37:34;15.60;99.90
51873;DHT22;52863;52.504;13.480;2022-07-23T05:42:34;15.50;99.90
51873;DHT22;52863;52.504;13.480;2022-07-23T05:45:03;15.80;99.90
51873;DHT22;52863;52.504;13.480;2022-07-23T05:47:39;15.60;99.90
51873;DHT22;52863;52.504;13.480;2022-07-23T05:50:09;14.00;99.90
51873;DHT22;52863;52.504;13.480;2022-07-23T05:55:06;15.50;99.90
51873;DHT22;52863;52.504;13.480;2022-07-23T05:57:36;15.60;99.90
51873;DHT22;52863;52.504;13.480;2022-07-23T06:00:06;15.70;99.90
51873;DHT22;52863;52.504;13.480;2022-07-23T06:14:57;15.70;99.90
51873;DHT22;52863;52.504;13.480;2022-07-23T06:22:23;15.70;99.90
51873;DHT22;52863;52.504;13.480;2022-07-23T06:32:22;15.50;99.90
51873;DHT22;52863;52.504;13.480;2022-07-23T06:49:45;15.60;99.90
51873;DHT22;52863;52.504;13.480;2022-07-23T06:52:13;15.50;99.90
51873;DHT22;52863;52.504;13.480;2022-07-23T07:07:05;15.80;99.90
51873;DHT22;52863;52.504;13.480;2022-07-23T07:12:03;15.80;99.90
51873;DHT22;52863;52.504;13.480;2022-07-23T07:24:26;15.80;99.90
51873;DHT22;52863;52.504;13.480;2022-07-23T07:29:29;16.00;99.90
51873;DHT22;52863;52.504;13.480;2022-07-23T07:41:54;16.50;99.90
51873;DHT22;52863;52.504;13.480;2022-07-23T07:59:17;17.00;99.90
51873;DHT22;52863;52.504;13.480;2022-07-23T08:14:07;18.20;99.90
51873;DHT22;52863;52.504;13.480;2022-07-23T08:16:37;18.60;99.90
51873;DHT22;52863;52.504;13.480;2022-07-23T08:21:54;18.80;99.90
51873;DHT22;52863;52.504;13.480;2022-07-23T08:31:54;21.20;99.90
51873;DHT22;52863;52.504;13.480;2022-07-23T08:34:23;21.90;99.90
51873;DHT22;52863;52.504;13.480;2022-07-23T08:41:49;22.80;99.90
51873;DHT22;52863;52.504;13.480;2022-07-23T08:44:17;22.80;99.90
51873;DHT22;52863;52.504;13.480;2022-07-23T08:46:46;22.50;99.90
51873;DHT22;52863;52.504;13.480;2022-07-23T08:49:16;22.70;99.90
51873;DHT22;52863;52.504;13.480;2022-07-23T08:51:45;22.60;99.90
51873;DHT22;52863;52.504;13.480;2022-07-23T08:54:14;22.90;99.90
51873;DHT22;52863;52.504;13.480;2022-07-23T09:04:11;23.80;99.90
51873;DHT22;52863;52.504;13.480;2022-07-23T09:06:40;24.10;99.90
51873;DHT22;52863;52.504;13.480;2022-07-23T09:09:17;24.70;99.90
51873;DHT22;52863;52.504;13.480;2022-07-23T09:11:46;25.40;99.90
51873;DHT22;52863;52.504;13.480;2022-07-23T09:14:14;25.10;99.90
51873;DHT22;52863;52.504;13.480;2022-07-23T09:16:42;25.80;99.90
51873;DHT22;52863;52.504;13.480;2022-07-23T09:19:11;25.40;99.90
51873;DHT22;52863;52.504;13.480;2022-07-23T09:21:42;26.50;99.90
51873;DHT22;52863;52.504;13.480;2022-07-23T09:24:19;26.20;99.50
51873;DHT22;52863;52.504;13.480;2022-07-23T09:26:48;27.30;96.00
51873;DHT22;52863;52.504;13.480;2022-07-23T09:29:18;27.20;96.20
51873;DHT22;52863;52.504;13.480;2022-07-23T09:31:48;27.60;95.50
51873;DHT22;52863;52.504;13.480;2022-07-23T09:34:20;27.50;96.10
51873;DHT22;52863;52.504;13.480;2022-07-23T09:36:52;26.80;95.80
51873;DHT22;52863;52.504;13.480;2022-07-23T09:39:26;25.50;97.10
51873;DHT22;52863;52.504;13.480;2022-07-23T09:41:55;24.80;99.90
51873;DHT22;52863;52.504;13.480;2022-07-23T09:46:58;23.60;99.90
51873;DHT22;52863;52.504;13.480;2022-07-23T09:49:31;23.70;99.90
51873;DHT22;52863;52.504;13.480;2022-07-23T09:52:01;23.70;99.90
51873;DHT22;52863;52.504;13.480;2022-07-23T09:54:32;24.20;99.90
51873;DHT22;52863;52.504;13.480;2022-07-23T09:57:04;25.10;99.80
51873;DHT22;52863;52.504;13.480;2022-07-23T09:59:36;25.80;97.90
51873;DHT22;52863;52.504;13.480;2022-07-23T10:02:05;26.10;97.60
51873;DHT22;52863;52.504;13.480;2022-07-23T10:04:34;26.90;96.40
51873;DHT22;52863;52.504;13.480;2022-07-23T10:07:07;27.50;94.30
51873;DHT22;52863;52.504;13.480;2022-07-23T10:09:39;27.20;94.60
51873;DHT22;52863;52.504;13.480;2022-07-23T10:12:10;27.10;95.70
51873;DHT22;52863;52.504;13.480;2022-07-23T10:14:57;28.00;94.80
51873;DHT22;52863;52.504;13.480;2022-07-23T10:17:28;28.40;91.20
51873;DHT22;52863;52.504;13.480;2022-07-23T10:19:56;28.50;91.50
51873;DHT22;52863;52.504;13.480;2022-07-23T10:22:28;28.20;91.10
51873;DHT22;52863;52.504;13.480;2022-07-23T10:25:03;27.40;92.90
51873;DHT22;52863;52.504;13.480;2022-07-23T10:30:39;28.50;92.70
51873;DHT22;52863;52.504;13.480;2022-07-23T10:33:17;28.20;91.30
51873;DHT22;52863;52.504;13.480;2022-07-23T10:35:52;28.30;89.50
51873;DHT22;52863;52.504;13.480;2022-07-23T10:38:25;28.30;90.00
51873;DHT22;52863;52.504;13.480;2022-07-23T10:40:57;29.10;87.70
51873;DHT22;52863;52.504;13.480;2022-07-23T10:43:25;29.50;86.00
51873;DHT22;52863;52.504;13.480;2022-07-23T10:45:54;29.50;82.80
51873;DHT22;52863;52.504;13.480;2022-07-23T10:48:24;29.20;85.40
51873;DHT22;52863;52.504;13.480;2022-07-23T10:51:12;29.50;83.10
51873;DHT22;52863;52.504;13.480;2022-07-23T10:53:55;29.40;86.10
51873;DHT22;52863;52.504;13.480;2022-07-23T10:56:49;29.50;85.40
51873;DHT22;52863;52.504;13.480;2022-07-23T10:59:18;29.60;89.50
51873;DHT22;52863;52.504;13.480;2022-07-23T11:01:46;29.40;84.80
51873;DHT22;52863;52.504;13.480;2022-07-23T11:04:15;30.40;80.10
51873;DHT22;52863;52.504;13.480;2022-07-23T11:07:08;30.90;79.10
51873;DHT22;52863;52.504;13.480;2022-07-23T11:09:41;30.90;75.40
51873;DHT22;52863;52.504;13.480;2022-07-23T11:12:32;30.80;72.30
51873;DHT22;52863;52.504;13.480;2022-07-23T11:15:01;30.30;74.10
51873;DHT22;52863;52.504;13.480;2022-07-23T11:17:30;29.30;77.60
51873;DHT22;52863;52.504;13.480;2022-07-23T11:20:19;29.80;79.10
51873;DHT22;52863;52.504;13.480;2022-07-23T11:22:50;31.00;73.90
51873;DHT22;52863;52.504;13.480;2022-07-23T11:25:34;31.40;72.00
51873;DHT22;52863;52.504;13.480;2022-07-23T11:28:22;32.10;70.10
51873;DHT22;52863;52.504;13.480;2022-07-23T11:30:52;33.10;71.00
51873;DHT22;52863;52.504;13.480;2022-07-23T11:33:21;33.80;65.70
51873;DHT22;52863;52.504;13.480;2022-07-23T11:36:00;34.50;60.80
51873;DHT22;52863;52.504;13.480;2022-07-23T11:38:31;34.30;60.70
51873;DHT22;52863;52.504;13.480;2022-07-23T11:41:01;34.10;58.60
51873;DHT22;52863;52.504;13.480;2022-07-23T11:43:29;33.70;62.80
51873;DHT22;52863;52.504;13.480;2022-07-23T11:45:59;33.80;62.00
51873;DHT22;52863;52.504;13.480;2022-07-23T11:48:29;34.30;62.00
51873;DHT22;52863;52.504;13.480;2022-07-23T11:51:00;35.00;58.80
51873;DHT22;52863;52.504;13.480;2022-07-23T11:53:30;34.90;56.70
51873;DHT22;52863;52.504;13.480;2022-07-23T11:56:05;35.00;58.30
51873;DHT22;52863;52.504;13.480;2022-07-23T11:58:33;33.80;57.60
51873;DHT22;52863;52.504;13.480;2022-07-23T12:01:02;33.00;59.70
51873;DHT22;52863;52.504;13.480;2022-07-23T12:03:31;32.80;60.20
51873;DHT22;52863;52.504;13.480;2022-07-23T12:06:00;32.10;61.30
51873;DHT22;52863;52.504;13.480;2022-07-23T12:08:28;32.40;60.50
51873;DHT22;52863;52.504;13.480;2022-07-23T12:10:56;31.90;60.60
51873;DHT22;52863;52.504;13.480;2022-07-23T12:13:26;31.00;61.90
51873;DHT22;52863;52.504;13.480;2022-07-23T12:15:56;30.10;63.90
51873;DHT22;52863;52.504;13.480;2022-07-23T12:18:26;28.40;67.20
51873;DHT22;52863;52.504;13.480;2022-07-23T12:20:57;28.00;75.00
51873;DHT22;52863;52.504;13.480;2022-07-23T12:23:27;27.10;77.40
51873;DHT22;52863;52.504;13.480;2022-07-23T12:26:01;26.90;77.40
51873;DHT22;52863;52.504;13.480;2022-07-23T12:28:32;26.50;73.80
51873;DHT22;52863;52.504;13.480;2022-07-23T12:31:04;26.30;81.50
51873;DHT22;52863;52.504;13.480;2022-07-23T12:33:34;26.40;76.10
51873;DHT22;52863;52.504;13.480;2022-07-23T12:36:05;27.00;81.10
51873;DHT22;52863;52.504;13.480;2022-07-23T12:38:38;27.20;80.50
51873;DHT22;52863;52.504;13.480;2022-07-23T12:43:39;26.80;78.80
51873;DHT22;52863;52.504;13.480;2022-07-23T12:46:10;24.00;79.00
51873;DHT22;52863;52.504;13.480;2022-07-23T12:48:50;26.60;82.30
51873;DHT22;52863;52.504;13.480;2022-07-23T12:51:21;26.00;81.80
51873;DHT22;52863;52.504;13.480;2022-07-23T12:53:53;26.30;78.00
51873;DHT22;52863;52.504;13.480;2022-07-23T12:56:27;26.30;83.50
51873;DHT22;52863;52.504;13.480;2022-07-23T12:59:05;26.30;84.20
51873;DHT22;52863;52.504;13.480;2022-07-23T13:01:37;26.20;83.60
51873;DHT22;52863;52.504;13.480;2022-07-23T13:04:07;25.90;84.50
51873;DHT22;52863;52.504;13.480;2022-07-23T13:06:42;26.00;84.60
51873;DHT22;52863;52.504;13.480;2022-07-23T13:09:13;25.80;84.50
51873;DHT22;52863;52.504;13.480;2022-07-23T13:11:41;25.80;85.10
51873;DHT22;52863;52.504;13.480;2022-07-23T13:14:12;25.90;81.70
51873;DHT22;52863;52.504;13.480;2022-07-23T13:16:41;25.90;79.30
51873;DHT22;52863;52.504;13.480;2022-07-23T13:19:10;26.20;86.00
51873;DHT22;52863;52.504;13.480;2022-07-23T13:21:41;26.00;84.10
51873;DHT22;52863;52.504;13.480;2022-07-23T13:24:11;25.80;78.40
51873;DHT22;52863;52.504;13.480;2022-07-23T13:26:40;25.80;86.60
51873;DHT22;52863;52.504;13.480;2022-07-23T13:29:10;25.70;86.00
51873;DHT22;52863;52.504;13.480;2022-07-23T13:34:07;25.90;85.90
51873;DHT22;52863;52.504;13.480;2022-07-23T13:36:36;25.80;85.90
51873;DHT22;52863;52.504;13.480;2022-07-23T13:39:04;25.80;82.10
51873;DHT22;52863;52.504;13.480;2022-07-23T13:41:36;25.70;86.90
51873;DHT22;52863;52.504;13.480;2022-07-23T13:44:06;25.90;87.20
51873;DHT22;52863;52.504;13.480;2022-07-23T13:46:35;25.60;87.60
51873;DHT22;52863;52.504;13.480;2022-07-23T13:51:36;25.20;83.60
51873;DHT22;52863;52.504;13.480;2022-07-23T13:54:05;25.60;86.60
51873;DHT22;52863;52.504;13.480;2022-07-23T13:56:35;25.40;85.30
51873;DHT22;52863;52.504;13.480;2022-07-23T13:59:04;25.30;85.70
51873;DHT22;52863;52.504;13.480;2022-07-23T14:01:34;25.60;87.20
51873;DHT22;52863;52.504;13.480;2022-07-23T14:04:23;25.70;79.00
51873;DHT22;52863;52.504;13.480;2022-07-23T14:06:52;25.70;79.50
51873;DHT22;52863;52.504;13.480;2022-07-23T14:09:21;25.60;81.20
51873;DHT22;52863;52.504;13.480;2022-07-23T14:11:51;25.40;86.50
51873;DHT22;52863;52.504;13.480;2022-07-23T14:14:20;25.30;87.00
51873;DHT22;52863;52.504;13.480;2022-07-23T14:16:49;25.50;81.80
51873;DHT22;52863;52.504;13.480;2022-07-23T14:19:18;25.30;87.50
51873;DHT22;52863;52.504;13.480;2022-07-23T14:24:15;25.60;88.80
51873;DHT22;52863;52.504;13.480;2022-07-23T14:26:44;25.70;89.20
51873;DHT22;52863;52.504;13.480;2022-07-23T14:29:13;25.60;87.70
51873;DHT22;52863;52.504;13.480;2022-07-23T14:31:41;25.90;87.20
51873;DHT22;52863;52.504;13.480;2022-07-23T14:34:11;25.90;82.90
51873;DHT22;52863;52.504;13.480;2022-07-23T14:36:40;26.10;85.10
51873;DHT22;52863;52.504;13.480;2022-07-23T14:39:08;25.50;81.50
51873;DHT22;52863;52.504;13.480;2022-07-23T14:41:36;26.10;85.50
51873;DHT22;52863;52.504;13.480;2022-07-23T14:44:05;25.50;87.10
51873;DHT22;52863;52.504;13.480;2022-07-23T14:46:36;25.40;79.30
51873;DHT22;52863;52.504;13.480;2022-07-23T14:49:18;25.40;87.00
51873;DHT22;52863;52.504;13.480;2022-07-23T14:51:59;25.50;83.60
51873;DHT22;52863;52.504;13.480;2022-07-23T14:54:28;25.00;85.40
51873;DHT22;52863;52.504;13.480;2022-07-23T14:56:57;25.20;87.20
51873;DHT22;52863;52.504;13.480;2022-07-23T14:59:27;24.90;86.10
51873;DHT22;52863;52.504;13.480;2022-07-23T15:01:55;25.00;85.10
51873;DHT22;52863;52.504;13.480;2022-07-23T15:04:25;24.90;83.50
51873;DHT22;52863;52.504;13.480;2022-07-23T15:07:04;25.20;85.00
51873;DHT22;52863;52.504;13.480;2022-07-23T15:12:02;24.90;86.60
51873;DHT22;52863;52.504;13.480;2022-07-23T15:14:33;24.90;86.60
51873;DHT22;52863;52.504;13.480;2022-07-23T15:19:32;25.00;87.70
51873;DHT22;52863;52.504;13.480;2022-07-23T15:22:00;24.20;85.50
51873;DHT22;52863;52.504;13.480;2022-07-23T15:24:29;25.00;88.50
51873;DHT22;52863;52.504;13.480;2022-07-23T15:26:57;24.60;86.40
51873;DHT22;52863;52.504;13.480;2022-07-23T15:36:54;24.30;87.70
51873;DHT22;52863;52.504;13.480;2022-07-23T15:39:23;24.10;88.70
51873;DHT22;52863;52.504;13.480;2022-07-23T15:44:20;24.40;84.20
51873;DHT22;52863;52.504;13.480;2022-07-23T15:46:55;24.50;87.70
51873;DHT22;52863;52.504;13.480;2022-07-23T15:49:25;24.10;86.20
51873;DHT22;52863;52.504;13.480;2022-07-23T15:51:55;24.20;80.90
51873;DHT22;52863;52.504;13.480;2022-07-23T15:54:24;24.40;87.60
51873;DHT22;52863;52.504;13.480;2022-07-23T15:59:21;24.10;86.60
51873;DHT22;52863;52.504;13.480;2022-07-23T16:04:24;24.40;87.10
51873;DHT22;52863;52.504;13.480;2022-07-23T16:09:22;24.10;80.90
51873;DHT22;52863;52.504;13.480;2022-07-23T16:19:17;23.80;87.30
51873;DHT22;52863;52.504;13.480;2022-07-23T16:21:45;23.70;86.50
51873;DHT22;52863;52.504;13.480;2022-07-23T16:24:16;23.80;85.80
51873;DHT22;52863;52.504;13.480;2022-07-23T16:26:46;23.70;79.60
51873;DHT22;52863;52.504;13.480;2022-07-23T16:39:14;23.40;86.60
51873;DHT22;52863;52.504;13.480;2022-07-23T16:44:13;23.60;85.90
51873;DHT22;52863;52.504;13.480;2022-07-23T16:49:10;23.90;80.50
51873;DHT22;52863;52.504;13.480;2022-07-23T16:51:38;23.50;85.10
51873;DHT22;52863;52.504;13.480;2022-07-23T16:54:06;23.70;85.20
51873;DHT22;52863;52.504;13.480;2022-07-23T16:56:36;23.70;78.60
51873;DHT22;52863;52.504;13.480;2022-07-23T16:59:06;23.50;83.90
51873;DHT22;52863;52.504;13.480;2022-07-23T17:01:36;23.50;83.20
51873;DHT22;52863;52.504;13.480;2022-07-23T17:06:33;23.20;83.80
51873;DHT22;52863;52.504;13.480;2022-07-23T17:09:02;23.10;84.20
51873;DHT22;52863;52.504;13.480;2022-07-23T17:11:33;23.30;84.20
51873;DHT22;52863;52.504;13.480;2022-07-23T17:14:01;22.90;85.90
51873;DHT22;52863;52.504;13.480;2022-07-23T17:19:00;23.00;76.30
51873;DHT22;52863;52.504;13.480;2022-07-23T17:23:58;23.10;84.60
51873;DHT22;52863;52.504;13.480;2022-07-23T17:26:26;23.00;82.90
51873;DHT22;52863;52.504;13.480;2022-07-23T17:28:54;22.80;83.60
51873;DHT22;52863;52.504;13.480;2022-07-23T17:31:22;22.90;82.40
51873;DHT22;52863;52.504;13.480;2022-07-23T17:33:51;22.80;81.80
51873;DHT22;52863;52.504;13.480;2022-07-23T17:36:20;22.80;76.70
51873;DHT22;52863;52.504;13.480;2022-07-23T17:38:49;22.90;83.00
51873;DHT22;52863;52.504;13.480;2022-07-23T17:41:18;23.20;83.60
51873;DHT22;52863;52.504;13.480;2022-07-23T17:43:46;22.10;79.00
51873;DHT22;52863;52.504;13.480;2022-07-23T17:46:14;23.10;82.80
51873;DHT22;52863;52.504;13.480;2022-07-23T17:53:41;22.80;84.10
51873;DHT22;52863;52.504;13.480;2022-07-23T17:56:09;22.40;82.50
51873;DHT22;52863;52.504;13.480;2022-07-23T17:58:38;22.60;81.90
51873;DHT22;52863;52.504;13.480;2022-07-23T18:06:04;22.50;84.50
51873;DHT22;52863;52.504;13.480;2022-07-23T18:11:03;22.20;82.70
51873;DHT22;52863;52.504;13.480;2022-07-23T18:13:31;22.30;82.90
51873;DHT22;52863;52.504;13.480;2022-07-23T18:20:57;22.20;84.90
51873;DHT22;52863;52.504;13.480;2022-07-23T18:25:53;21.80;84.90
51873;DHT22;52863;52.504;13.480;2022-07-23T18:28:24;21.80;77.50
51873;DHT22;52863;52.504;13.480;2022-07-23T18:38:18;21.70;86.40
51873;DHT22;52863;52.504;13.480;2022-07-23T18:45:45;21.40;79.10
51873;DHT22;52863;52.504;13.480;2022-07-23T18:48:14;21.60;84.90
51873;DHT22;52863;52.504;13.480;2022-07-23T18:50:42;20.80;84.50
51873;DHT22;52863;52.504;13.480;2022-07-23T18:55:40;21.20;85.30
51873;DHT22;52863;52.504;13.480;2022-07-23T18:58:10;21.20;85.10
51873;DHT22;52863;52.504;13.480;2022-07-23T19:00:38;20.70;84.70
51873;DHT22;52863;52.504;13.480;2022-07-23T19:03:08;20.90;78.30
51873;DHT22;52863;52.504;13.480;2022-07-23T19:10:35;20.80;85.60
51873;DHT22;52863;52.504;13.480;2022-07-23T19:13:03;20.80;78.40
51873;DHT22;52863;52.504;13.480;2022-07-23T19:18:01;20.90;87.30
51873;DHT22;52863;52.504;13.480;2022-07-23T19:20:31;20.60;79.10
51873;DHT22;52863;52.504;13.480;2022-07-23T19:23:00;20.80;83.30
51873;DHT22;52863;52.504;13.480;2022-07-23T19:25:28;20.40;88.40
51873;DHT22;52863;52.504;13.480;2022-07-23T19:27:56;20.20;87.60
51873;DHT22;52863;52.504;13.480;2022-07-23T19:37:52;20.20;81.40
51873;DHT22;52863;52.504;13.480;2022-07-23T19:40:21;20.10;90.30
51873;DHT22;52863;52.504;13.480;2022-07-23T19:47:46;19.90;90.70
51873;DHT22;52863;52.504;13.480;2022-07-23T19:50:21;20.00;90.30
51873;DHT22;52863;52.504;13.480;2022-07-23T19:55:21;19.90;83.20
51873;DHT22;52863;52.504;13.480;2022-07-23T20:00:21;19.70;85.20
51873;DHT22;52863;52.504;13.480;2022-07-23T20:10:21;19.60;92.20
51873;DHT22;52863;52.504;13.480;2022-07-23T20:12:50;19.50;86.40
51873;DHT22;52863;52.504;13.480;2022-07-23T20:15:21;19.40;86.00
51873;DHT22;52863;52.504;13.480;2022-07-23T20:17:49;19.40;85.50
51873;DHT22;52863;52.504;13.480;2022-07-23T20:22:46;19.30;91.60
51873;DHT22;52863;52.504;13.480;2022-07-23T20:25:14;19.00;91.70
51873;DHT22;52863;52.504;13.480;2022-07-23T20:27:44;19.30;86.20
51873;DHT22;52863;52.504;13.480;2022-07-23T20:30:13;19.10;91.80
51873;DHT22;52863;52.504;13.480;2022-07-23T20:40:08;19.30;92.00
51873;DHT22;52863;52.504;13.480;2022-07-23T20:48:29;19.20;92.40
51873;DHT22;52863;52.504;13.480;2022-07-23T20:58:27;18.80;92.90
51873;DHT22;52863;52.504;13.480;2022-07-23T21:05:52;18.50;93.90
51873;DHT22;52863;52.504;13.480;2022-07-23T21:15:48;18.20;93.80
51873;DHT22;52863;52.504;13.480;2022-07-23T21:20:45;18.50;94.70
51873;DHT22;52863;52.504;13.480;2022-07-23T21:23:31;18.30;94.60
51873;DHT22;52863;52.504;13.480;2022-07-23T21:26:03;16.40;94.10
51873;DHT22;52863;52.504;13.480;2022-07-23T21:28:52;18.20;90.80
51873;DHT22;52863;52.504;13.480;2022-07-23T21:31:22;18.10;90.90
51873;DHT22;52863;52.504;13.480;2022-07-23T21:33:50;18.20;95.10
51873;DHT22;52863;52.504;13.480;2022-07-23T21:48:43;17.90;92.60
51873;DHT22;52863;52.504;13.480;2022-07-23T21:51:12;17.90;96.50
51873;DHT22;52863;52.504;13.480;2022-07-23T21:56:08;17.80;96.30
51873;DHT22;52863;52.504;13.480;2022-07-23T21:58:37;17.70;96.80
51873;DHT22;52863;52.504;13.480;2022-07-23T22:01:05;17.60;92.90
51873;DHT22;52863;52.504;13.480;2022-07-23T22:03:33;18.00;97.00
51873;DHT22;52863;52.504;13.480;2022-07-23T22:06:03;17.80;93.10
51873;DHT22;52863;52.504;13.480;2022-07-23T22:20:54;17.70;97.50
51873;DHT22;52863;52.504;13.480;2022-07-23T22:23:24;17.60;94.00
51873;DHT22;52863;52.504;13.480;2022-07-23T22:25:52;17.60;97.40
51873;DHT22;52863;52.504;13.480;2022-07-23T22:40:45;17.30;95.70
51873;DHT22;52863;52.504;13.480;2022-07-23T22:58:10;17.10;96.50
51873;DHT22;52863;52.504;13.480;2022-07-23T23:08:04;17.00;99.90
51873;DHT22;52863;52.504;13.480;2022-07-23T23:15:31;16.90;98.00
51873;DHT22;52863;52.504;13.480;2022-07-23T23:17:59;17.00;99.90
51873;DHT22;52863;52.504;13.480;2022-07-23T23:20:27;17.00;99.90
51873;DHT22;52863;52.504;13.480;2022-07-23T23:25:24;16.60;99.90
51873;DHT22;52863;52.504;13.480;2022-07-23T23:32:51;16.60;99.90
51873;DHT22;52863;52.504;13.480;2022-07-23T23:35:28;16.50;99.90
51873;DHT22;52863;52.504;13.480;2022-07-23T23:47:53;16.50;99.90
51873;DHT22;52863;52.504;13.480;2022-07-23T23:50:21;16.50;99.90
